createdAt,value
2022-12-15T00:00:35.621Z,23.92
2022-12-15T00:03:25.713Z,22.85
2022-12-15T00:06:11.777Z,24.05
2022-12-15T00:08:59.134Z,30.83
2022-12-15T00:11:45.266Z,27.63
2022-12-15T00:14:31.412Z,23.63
2022-12-15T00:17:19.246Z,24.38
2022-12-15T00:20:05.466Z,29.25
2022-12-15T00:22:51.633Z,28.33
2022-12-15T00:25:37.844Z,26.15
2022-12-15T00:28:23.916Z,26.75
2022-12-15T00:31:09.983Z,23.20
2022-12-15T00:33:57.234Z,29.02
2022-12-15T00:36:43.435Z,22.95
2022-12-15T00:39:12.006Z,28.48
2022-12-15T00:41:40.613Z,27.80
2022-12-15T00:44:09.476Z,31.10
2022-12-15T00:46:56.515Z,27.88
2022-12-15T00:49:45.209Z,32.38
2022-12-15T00:52:31.860Z,28.17
2022-12-15T00:55:18.018Z,29.27
2022-12-15T00:58:04.096Z,26.80
2022-12-15T01:00:50.339Z,27.10
2022-12-15T01:03:38.881Z,26.08
2022-12-15T01:06:27.992Z,28.67
2022-12-15T01:09:16.614Z,29.05
2022-12-15T01:12:03.740Z,28.98
2022-12-15T01:14:50.559Z,30.15
2022-12-15T01:17:36.685Z,31.27
2022-12-15T01:20:27.518Z,27.83
2022-12-15T01:22:57.446Z,27.48
2022-12-15T01:25:27.700Z,33.40
2022-12-15T01:27:56.717Z,32.08
2022-12-15T01:30:26.953Z,29.02
2022-12-15T01:32:55.299Z,24.67
2022-12-15T01:35:24.318Z,27.98
2022-12-15T01:37:52.855Z,31.38
2022-12-15T01:40:40.509Z,35.42
2022-12-15T01:43:13.910Z,26.60
2022-12-15T01:45:55.590Z,29.02
2022-12-15T01:51:10.451Z,31.25
2022-12-15T01:53:44.142Z,29.88
2022-12-15T01:56:14.778Z,39.08
2022-12-15T01:58:46.600Z,37.90
2022-12-15T02:01:15.163Z,38.33
2022-12-15T02:03:45.454Z,41.05
2022-12-15T02:06:15.048Z,34.30
2022-12-15T02:08:47.636Z,40.05
2022-12-15T02:11:45.669Z,30.92
2022-12-15T02:14:20.095Z,35.38
2022-12-15T02:17:02.585Z,36.75
2022-12-15T02:20:01.170Z,34.53
2022-12-15T02:22:40.922Z,33.42
2022-12-15T02:25:29.903Z,30.58
2022-12-15T02:28:06.496Z,32.47
2022-12-15T02:30:46.505Z,35.00
2022-12-15T02:33:22.057Z,35.85
2022-12-15T02:35:58.205Z,31.85
2022-12-15T02:38:32.533Z,34.35
2022-12-15T02:41:02.339Z,31.27
2022-12-15T02:43:34.468Z,32.67
2022-12-15T02:46:18.828Z,34.80
2022-12-15T02:48:57.001Z,31.15
2022-12-15T02:51:40.833Z,30.20
2022-12-15T02:54:36.627Z,30.23
2022-12-15T02:57:14.130Z,27.23
2022-12-15T02:59:47.711Z,31.58
2022-12-15T03:02:18.146Z,29.38
2022-12-15T03:04:46.836Z,31.25
2022-12-15T03:07:15.649Z,31.05
2022-12-15T03:09:44.488Z,28.67
2022-12-15T03:12:13.225Z,31.52
2022-12-15T03:14:41.808Z,30.17
2022-12-15T03:17:10.316Z,29.48
2022-12-15T03:19:40.752Z,31.30
2022-12-15T03:22:09.753Z,27.90
2022-12-15T03:24:38.171Z,33.05
2022-12-15T03:27:06.892Z,29.35
2022-12-15T03:29:35.811Z,30.75
2022-12-15T03:32:04.469Z,30.38
2022-12-15T03:34:33.009Z,29.30
2022-12-15T03:37:03.396Z,32.50
2022-12-15T03:39:31.990Z,32.88
2022-12-15T03:42:01.132Z,33.95
2022-12-15T03:44:29.676Z,37.67
2022-12-15T03:47:02.922Z,29.70
2022-12-15T03:49:32.108Z,32.58
2022-12-15T03:52:02.097Z,33.22
2022-12-15T03:54:30.746Z,36.08
2022-12-15T03:56:59.983Z,39.13
2022-12-15T03:59:28.627Z,35.22
2022-12-15T04:01:57.470Z,36.35
2022-12-15T04:04:26.047Z,39.60
2022-12-15T04:06:54.524Z,30.50
2022-12-15T04:09:24.599Z,32.53
2022-12-15T04:11:53.233Z,31.83
2022-12-15T04:14:22.195Z,30.90
2022-12-15T04:16:50.760Z,31.05
2022-12-15T04:19:36.796Z,32.33
2022-12-15T04:22:05.437Z,33.45
2022-12-15T04:24:52.656Z,28.50
2022-12-15T04:27:38.358Z,30.88
2022-12-15T04:30:26.175Z,34.30
2022-12-15T04:33:13.046Z,30.63
2022-12-15T04:36:00.003Z,30.35
2022-12-15T04:38:50.131Z,26.58
2022-12-15T04:41:39.476Z,27.30
2022-12-15T04:44:26.023Z,35.40
2022-12-15T04:47:12.120Z,28.83
2022-12-15T04:49:59.264Z,31.33
2022-12-15T04:52:46.991Z,34.67
2022-12-15T04:55:32.953Z,31.50
2022-12-15T04:58:24.916Z,33.60
2022-12-15T05:03:56.523Z,31.70
2022-12-15T05:06:42.028Z,35.55
2022-12-15T05:09:28.113Z,34.17
2022-12-15T05:12:14.271Z,39.83
2022-12-15T05:15:02.086Z,32.88
2022-12-15T05:17:48.157Z,38.58
2022-12-15T05:20:34.681Z,37.33
2022-12-15T05:23:21.046Z,36.25
2022-12-15T05:26:06.689Z,38.97
2022-12-15T05:28:53.057Z,36.45
2022-12-15T05:31:40.314Z,34.05
2022-12-15T05:34:09.208Z,44.97
2022-12-15T05:36:38.599Z,38.47
2022-12-15T05:39:08.297Z,35.35
2022-12-15T05:41:36.704Z,38.08
2022-12-15T05:44:05.620Z,34.13
2022-12-15T05:46:35.612Z,35.33
2022-12-15T05:49:06.139Z,40.72
2022-12-15T05:51:35.536Z,37.17
2022-12-15T05:54:04.107Z,32.92
2022-12-15T05:56:33.090Z,34.85
2022-12-15T05:59:01.601Z,34.63
2022-12-15T06:01:31.142Z,33.80
2022-12-15T06:04:01.672Z,31.83
2022-12-15T06:06:30.683Z,32.90
2022-12-15T06:08:59.381Z,31.58
2022-12-15T06:11:28.575Z,42.60
2022-12-15T06:13:58.183Z,36.00
2022-12-15T06:16:29.258Z,38.95
2022-12-15T06:19:02.877Z,42.63
2022-12-15T06:21:33.398Z,32.83
2022-12-15T06:24:02.395Z,35.80
2022-12-15T06:26:33.837Z,42.30
2022-12-15T06:29:04.367Z,38.92
2022-12-15T06:31:34.196Z,38.47
2022-12-15T06:34:07.589Z,39.45
2022-12-15T06:36:36.568Z,39.90
2022-12-15T06:39:08.662Z,44.95
2022-12-15T06:41:37.381Z,41.72
2022-12-15T06:44:07.010Z,40.60
2022-12-15T06:46:36.122Z,40.35
2022-12-15T06:49:06.473Z,39.25
2022-12-15T06:51:35.069Z,44.38
2022-12-15T06:54:04.021Z,48.75
2022-12-15T06:56:36.175Z,51.83
2022-12-15T06:59:06.456Z,56.55
2022-12-15T07:01:36.183Z,52.87
2022-12-15T07:04:06.440Z,51.25
2022-12-15T07:06:37.578Z,43.42
2022-12-15T07:09:10.689Z,49.33
2022-12-15T07:11:39.447Z,45.13
2022-12-15T07:14:07.991Z,42.50
2022-12-15T07:16:36.569Z,47.22
2022-12-15T07:19:06.426Z,44.25
2022-12-15T07:21:35.049Z,50.35
2022-12-15T07:24:04.323Z,47.15
2022-12-15T07:26:33.081Z,44.03
2022-12-15T07:29:01.990Z,51.03
2022-12-15T07:31:31.966Z,45.13
2022-12-15T07:34:01.014Z,45.60
2022-12-15T07:36:32.078Z,52.22
2022-12-15T07:39:02.123Z,49.15
2022-12-15T07:41:32.013Z,50.07
2022-12-15T07:44:00.640Z,46.88
2022-12-15T07:46:29.566Z,54.33
2022-12-15T07:48:58.702Z,48.38
2022-12-15T07:51:27.845Z,49.90
2022-12-15T07:53:57.960Z,47.83
2022-12-15T07:56:26.448Z,44.17
2022-12-15T07:58:55.162Z,57.33
2022-12-15T08:01:24.864Z,52.25
2022-12-15T08:03:53.858Z,57.40
2022-12-15T08:06:22.917Z,49.85
2022-12-15T08:08:52.025Z,50.42
2022-12-15T08:11:24.873Z,56.47
2022-12-15T08:14:03.052Z,56.15
2022-12-15T08:16:34.841Z,50.90
2022-12-15T08:19:03.758Z,51.78
2022-12-15T08:21:33.300Z,45.28
2022-12-15T08:24:02.202Z,52.22
2022-12-15T08:26:32.756Z,49.25
2022-12-15T08:29:40.648Z,46.00
2022-12-15T08:31:54.212Z,51.75
2022-12-15T08:34:23.188Z,50.35
2022-12-15T08:36:51.830Z,50.88
2022-12-15T08:39:20.803Z,47.20
2022-12-15T08:41:51.592Z,50.58
2022-12-15T08:44:20.296Z,46.80
2022-12-15T08:46:48.995Z,53.63
2022-12-15T08:49:21.676Z,47.63
2022-12-15T08:51:51.687Z,51.33
2022-12-15T08:54:21.518Z,48.85
2022-12-15T08:56:51.686Z,46.47
2022-12-15T08:59:20.752Z,44.00
2022-12-15T09:01:49.521Z,52.50
2022-12-15T09:04:18.780Z,52.97
2022-12-15T09:06:50.520Z,45.58
2022-12-15T09:11:48.886Z,51.38
2022-12-15T09:14:22.936Z,51.92
2022-12-15T09:16:56.014Z,55.10
2022-12-15T09:19:25.516Z,56.42
2022-12-15T09:21:54.658Z,52.35
2022-12-15T09:24:33.985Z,48.92
2022-12-15T09:27:04.585Z,58.45
2022-12-15T09:29:35.175Z,56.25
2022-12-15T09:32:10.555Z,55.47
2022-12-15T09:34:42.817Z,48.75
2022-12-15T09:37:11.708Z,47.75
2022-12-15T09:39:40.431Z,54.65
2022-12-15T09:42:24.992Z,48.42
2022-12-15T09:45:03.181Z,51.95
2022-12-15T09:47:42.082Z,54.65
2022-12-15T09:50:13.164Z,51.08
2022-12-15T09:52:48.148Z,50.08
2022-12-15T09:55:22.758Z,51.45
2022-12-15T09:57:55.310Z,50.42
2022-12-15T10:00:26.913Z,51.97
2022-12-15T10:06:16.597Z,49.35
2022-12-15T10:08:50.668Z,53.53
2022-12-15T10:11:32.663Z,55.63
2022-12-15T10:14:08.902Z,53.05
2022-12-15T10:16:52.908Z,53.72
2022-12-15T10:19:29.955Z,51.08
2022-12-15T10:21:59.918Z,55.75
2022-12-15T10:25:07.901Z,49.92
2022-12-15T10:27:36.196Z,54.05
2022-12-15T10:30:07.324Z,49.70
2022-12-15T10:32:50.980Z,53.17
2022-12-15T10:35:24.100Z,52.30
2022-12-15T10:37:52.848Z,57.30
2022-12-15T10:40:50.557Z,47.20
2022-12-15T10:43:28.308Z,47.50
2022-12-15T10:46:08.063Z,54.63
2022-12-15T10:48:38.488Z,51.22
2022-12-15T10:51:21.086Z,50.30
2022-12-15T10:53:51.336Z,55.40
2022-12-15T10:56:28.827Z,50.58
2022-12-15T10:59:03.736Z,53.25
2022-12-15T11:01:35.864Z,50.97
2022-12-15T11:04:25.018Z,48.42
2022-12-15T11:06:57.881Z,51.38
2022-12-15T11:09:33.574Z,54.30
2022-12-15T11:12:19.773Z,49.80
2022-12-15T11:14:51.258Z,56.83
2022-12-15T11:17:22.117Z,44.67
2022-12-15T11:20:02.821Z,44.53
2022-12-15T11:22:41.389Z,49.38
2022-12-15T11:25:24.015Z,43.33
2022-12-15T11:27:56.499Z,49.75
2022-12-15T11:30:28.671Z,44.72
2022-12-15T11:33:01.630Z,48.30
2022-12-15T11:35:45.241Z,47.50
2022-12-15T11:38:21.344Z,44.13
2022-12-15T11:40:51.905Z,44.22
2022-12-15T11:43:33.358Z,46.60
2022-12-15T11:48:43.324Z,42.92
2022-12-15T11:51:18.929Z,48.38
2022-12-15T11:53:57.890Z,47.72
2022-12-15T11:56:32.938Z,43.13
2022-12-15T11:59:38.858Z,45.28
2022-12-15T12:02:27.876Z,48.78
2022-12-15T12:05:20.376Z,52.70
2022-12-15T12:07:53.975Z,47.22
2022-12-15T12:10:35.901Z,48.08
2022-12-15T12:15:49.384Z,42.78
2022-12-15T12:18:23.217Z,55.78
2022-12-15T12:20:57.978Z,53.10
2022-12-15T12:23:35.945Z,53.15
2022-12-15T12:26:11.891Z,50.92
2022-12-15T12:28:48.788Z,48.70
2022-12-15T12:31:28.287Z,57.05
2022-12-15T12:34:03.004Z,53.63
2022-12-15T12:36:32.207Z,62.22
2022-12-15T12:39:03.049Z,52.85
2022-12-15T12:41:42.963Z,51.00
2022-12-15T12:44:18.669Z,49.33
2022-12-15T12:46:52.879Z,44.65
2022-12-15T12:49:29.891Z,56.50
2022-12-15T12:52:02.012Z,53.60
2022-12-15T12:54:50.392Z,45.72
2022-12-15T12:57:39.120Z,50.88
2022-12-15T13:00:23.954Z,56.88
2022-12-15T13:03:18.598Z,46.05
2022-12-15T13:05:52.437Z,53.60
2022-12-15T13:08:51.576Z,53.47
2022-12-15T13:12:15.054Z,56.33
2022-12-15T13:14:51.958Z,54.47
2022-12-15T13:17:30.789Z,51.83
2022-12-15T13:20:21.496Z,48.38
2022-12-15T13:22:50.520Z,58.53
2022-12-15T13:26:03.496Z,58.47
2022-12-15T13:28:44.501Z,58.00
2022-12-15T13:31:32.398Z,49.45
2022-12-15T13:34:18.116Z,61.50
2022-12-15T13:36:55.940Z,58.47
2022-12-15T13:39:57.577Z,50.28
2022-12-15T13:42:51.236Z,49.80
2022-12-15T13:45:36.736Z,47.90
2022-12-15T13:48:25.711Z,51.40
2022-12-15T13:51:03.664Z,56.40
2022-12-15T13:53:42.077Z,52.92
2022-12-15T13:56:26.912Z,59.50
2022-12-15T13:59:02.789Z,48.58
2022-12-15T14:01:34.041Z,58.70
2022-12-15T14:04:12.724Z,50.08
2022-12-15T14:06:47.756Z,55.85
2022-12-15T14:09:23.647Z,45.47
2022-12-15T14:11:54.205Z,56.58
2022-12-15T14:14:29.186Z,48.70
2022-12-15T14:17:01.210Z,51.33
2022-12-15T14:19:41.112Z,52.22
2022-12-15T14:22:28.766Z,49.28
2022-12-15T14:25:04.134Z,51.00
2022-12-15T14:27:34.771Z,53.50
2022-12-15T14:30:25.037Z,52.30
2022-12-15T14:32:58.519Z,50.55
2022-12-15T14:35:33.101Z,51.55
2022-12-15T14:38:06.532Z,52.67
2022-12-15T14:40:37.528Z,61.60
2022-12-15T14:43:08.171Z,49.22
2022-12-15T14:45:36.958Z,53.78
2022-12-15T14:51:02.681Z,56.22
2022-12-15T14:53:34.987Z,56.38
2022-12-15T14:56:30.101Z,57.05
2022-12-15T14:59:04.444Z,52.47
2022-12-15T15:01:40.355Z,61.22
2022-12-15T15:04:26.283Z,56.65
2022-12-15T15:06:58.957Z,56.00
2022-12-15T15:09:29.437Z,55.03
2022-12-15T15:12:04.120Z,53.05
2022-12-15T15:14:38.766Z,49.58
2022-12-15T15:17:10.093Z,55.08
2022-12-15T15:19:46.736Z,52.47
2022-12-15T15:22:32.430Z,55.58
2022-12-15T15:25:01.772Z,46.90
2022-12-15T15:27:36.927Z,45.28
2022-12-15T15:30:20.659Z,55.58
2022-12-15T15:32:58.103Z,54.88
2022-12-15T15:35:31.932Z,52.63
2022-12-15T15:38:06.279Z,53.20
2022-12-15T15:40:35.210Z,46.88
2022-12-15T15:43:09.145Z,50.15
2022-12-15T15:45:37.724Z,53.05
2022-12-15T15:48:07.082Z,52.40
2022-12-15T15:50:38.017Z,53.88
2022-12-15T15:53:08.365Z,58.67
2022-12-15T15:55:39.899Z,53.45
2022-12-15T15:58:13.812Z,52.35
2022-12-15T16:00:42.554Z,48.47
2022-12-15T16:03:11.421Z,52.35
2022-12-15T16:05:41.089Z,49.28
2022-12-15T16:08:16.047Z,56.33
2022-12-15T16:10:50.680Z,57.67
2022-12-15T16:13:26.339Z,68.97
2022-12-15T16:15:55.835Z,69.75
2022-12-15T16:18:24.716Z,66.93
2022-12-15T16:20:54.104Z,61.33
2022-12-15T16:23:27.624Z,64.72
2022-12-15T16:25:58.545Z,65.78
2022-12-15T16:28:29.880Z,72.53
2022-12-15T16:30:59.993Z,74.20
2022-12-15T16:33:28.740Z,73.20
2022-12-15T16:35:59.143Z,73.53
2022-12-15T16:38:31.452Z,74.88
2022-12-15T16:41:06.573Z,68.72
2022-12-15T16:43:39.129Z,71.40
2022-12-15T16:46:14.217Z,73.65
2022-12-15T16:48:43.554Z,87.95
2022-12-15T16:51:26.499Z,76.50
2022-12-15T16:53:56.559Z,80.68
2022-12-15T16:56:25.229Z,78.07
2022-12-15T16:59:15.511Z,78.82
2022-12-15T17:01:42.436Z,76.30
2022-12-15T17:04:11.879Z,77.30
2022-12-15T17:06:41.292Z,68.68
2022-12-15T17:09:18.413Z,70.30
2022-12-15T17:11:47.319Z,91.50
2022-12-15T17:14:16.348Z,81.50
2022-12-15T17:16:44.968Z,90.72
2022-12-15T17:19:19.195Z,99.55
2022-12-15T17:21:54.105Z,93.88
2022-12-15T17:24:24.965Z,106.72
2022-12-15T17:26:53.325Z,98.25
2022-12-15T17:29:25.370Z,117.03
2022-12-15T17:31:54.086Z,125.50
2022-12-15T17:34:28.970Z,120.03
2022-12-15T17:36:59.261Z,105.35
2022-12-15T17:39:30.494Z,116.05
2022-12-15T17:42:00.852Z,121.93
2022-12-15T17:44:34.496Z,115.20
2022-12-15T17:47:05.592Z,112.75
2022-12-15T17:49:38.273Z,108.15
2022-12-15T17:52:17.089Z,105.15
2022-12-15T17:54:47.235Z,105.20
2022-12-15T17:57:15.992Z,113.22
2022-12-15T17:59:44.735Z,117.10
2022-12-15T18:02:14.684Z,113.72
2022-12-15T18:04:44.221Z,106.50
2022-12-15T18:07:18.622Z,124.43
2022-12-15T18:09:51.610Z,154.05
2022-12-15T18:12:21.290Z,121.72
2022-12-15T18:14:50.281Z,100.78
2022-12-15T18:17:20.082Z,100.97
2022-12-15T18:19:49.457Z,76.95
2022-12-15T18:22:22.893Z,74.75
2022-12-15T18:24:54.950Z,68.40
2022-12-15T18:27:26.085Z,56.65
2022-12-15T18:29:55.024Z,57.22
2022-12-15T18:32:26.965Z,56.50
2022-12-15T18:34:56.245Z,50.60
2022-12-15T18:37:26.001Z,57.60
2022-12-15T18:39:59.497Z,67.32
2022-12-15T18:42:33.018Z,55.83
2022-12-15T18:45:05.100Z,62.60
2022-12-15T18:47:34.032Z,59.78
2022-12-15T18:50:02.856Z,59.53
2022-12-15T18:52:34.648Z,60.35
2022-12-15T18:55:05.766Z,60.13
2022-12-15T18:57:36.917Z,53.70
2022-12-15T19:00:17.839Z,58.38
2022-12-15T19:02:47.476Z,47.83
2022-12-15T19:05:29.247Z,61.65
2022-12-15T19:08:01.215Z,56.58
2022-12-15T19:10:35.325Z,61.17
2022-12-15T19:13:04.216Z,55.95
2022-12-15T19:15:33.324Z,59.15
2022-12-15T19:18:19.473Z,52.47
2022-12-15T19:21:05.731Z,62.10
2022-12-15T19:23:34.899Z,57.38
2022-12-15T19:26:05.739Z,56.15
2022-12-15T19:28:34.431Z,50.88
2022-12-15T19:31:03.202Z,47.13
2022-12-15T19:33:32.436Z,55.17
2022-12-15T19:36:01.146Z,52.78
2022-12-15T19:38:32.948Z,67.78
2022-12-15T19:41:01.861Z,63.72
2022-12-15T19:43:32.499Z,57.00
2022-12-15T19:46:01.698Z,50.42
2022-12-15T19:48:30.102Z,55.30
2022-12-15T19:50:58.771Z,56.88
2022-12-15T19:53:30.486Z,53.45
2022-12-15T19:56:01.838Z,59.10
2022-12-15T19:58:34.003Z,65.13
2022-12-15T20:01:05.968Z,65.80
2022-12-15T20:03:36.358Z,70.95
2022-12-15T20:06:12.118Z,67.00
2022-12-15T20:08:45.740Z,52.38
2022-12-15T20:11:19.346Z,56.05
2022-12-15T20:13:50.491Z,52.00
2022-12-15T20:16:20.227Z,53.10
2022-12-15T20:18:51.152Z,52.47
2022-12-15T20:21:22.481Z,54.13
2022-12-15T20:23:55.202Z,42.75
2022-12-15T20:26:27.856Z,47.83
2022-12-15T20:28:58.674Z,46.63
2022-12-15T20:31:27.981Z,47.05
2022-12-15T20:33:57.397Z,46.40
2022-12-15T20:36:28.287Z,57.97
2022-12-15T20:38:58.258Z,65.07
2022-12-15T20:41:29.225Z,53.40
2022-12-15T20:43:59.621Z,46.28
2022-12-15T20:46:35.051Z,57.08
2022-12-15T20:49:04.738Z,52.70
2022-12-15T20:51:34.214Z,64.85
2022-12-15T20:54:04.942Z,49.17
2022-12-15T20:56:34.897Z,51.25
2022-12-15T20:59:06.225Z,50.63
2022-12-15T21:01:37.066Z,50.60
2022-12-15T21:04:22.018Z,45.75
2022-12-15T21:06:54.836Z,58.20
2022-12-15T21:09:26.748Z,52.67
2022-12-15T21:11:55.399Z,57.08
2022-12-15T21:14:26.062Z,49.53
2022-12-15T21:16:54.820Z,52.92
2022-12-15T21:19:24.944Z,49.78
2022-12-15T21:21:55.863Z,49.08
2022-12-15T21:24:28.062Z,52.05
2022-12-15T21:26:57.657Z,65.55
2022-12-15T21:29:30.114Z,65.53
2022-12-15T21:31:59.019Z,73.50
2022-12-15T21:34:28.040Z,69.25
2022-12-15T21:36:58.459Z,62.40
2022-12-15T21:39:31.221Z,58.80
2022-12-15T21:42:02.369Z,64.57
2022-12-15T21:44:32.756Z,60.78
2022-12-15T21:47:01.902Z,61.85
2022-12-15T21:49:29.661Z,59.30
2022-12-15T21:52:01.098Z,65.68
2022-12-15T21:54:33.035Z,60.00
2022-12-15T21:57:03.618Z,72.35
2022-12-15T21:59:34.503Z,63.60
2022-12-15T22:02:19.343Z,68.38
2022-12-15T22:04:49.020Z,63.90
2022-12-15T22:07:17.963Z,63.63
2022-12-15T22:09:46.986Z,65.10
2022-12-15T22:12:21.959Z,70.55
2022-12-15T22:14:52.212Z,70.07
2022-12-15T22:17:22.224Z,72.40
2022-12-15T22:19:51.022Z,57.50
2022-12-15T22:22:20.816Z,68.78
2022-12-15T22:24:49.271Z,65.53
2022-12-15T22:27:21.020Z,75.43
2022-12-15T22:29:52.233Z,83.22
2022-12-15T22:32:21.751Z,65.73
2022-12-15T22:34:50.851Z,69.85
2022-12-15T22:37:21.113Z,74.65
2022-12-15T22:39:50.275Z,56.70
2022-12-15T22:42:20.660Z,66.03
2022-12-15T22:44:49.223Z,70.63
2022-12-15T22:47:19.717Z,70.50
2022-12-15T22:49:48.379Z,76.35
2022-12-15T23:33:21.930Z,54.10
2022-12-15T23:36:01.689Z,56.00
2022-12-15T23:38:33.223Z,60.97
2022-12-15T23:41:06.392Z,71.65
2022-12-15T23:43:40.026Z,59.40
2022-12-15T23:46:10.329Z,56.33
2022-12-15T23:48:44.122Z,58.10
2022-12-15T23:51:17.774Z,60.28
2022-12-15T23:53:50.049Z,65.95
2022-12-15T23:56:24.115Z,65.75
2022-12-15T23:58:57.997Z,61.55
